Terminal Aerodrome Forecast
Issued by NWS

Home | Current Version | Previous Version | Text Only | Print | Product List | Glossary On
Versions: 1 2 3 4 5 6 7 8 9 10 11 12 13 14 15 16 17 18 19
000
FTUS46 KSGX 202300
TAFSNA
TAF
KSNA 202325Z 2100/2124 22008KT P6SM SCT090 SCT150
     FM210300 20005KT P6SM SCT020 SCT150
     FM210600 VRB04KT P6SM OVC018
     FM211600 VRB04KT P6SM SCT020 SCT100
     FM211800 22009KT P6SM SCT100=

USA.gov is the U.S. government's official web portal to all federal, state and local government web resources and services.